METAR
METAR

METAR

METAR EPSY 200900Z 20004KT CAVOK 05/05 Q1025=
TAF EPSY 200830Z 2009/2018 21007KT CAVOK PROB30 TEMPO 2009/2010 SCT005 BKN012=
Ostrzeżenia
Ostrzeżenia

Ostrzeżenia

OSTRZEZENIE LOTNISKOWE DLA LOTNISKA SZYMANY WAZNOSC OD: 06:00 20-10-2020 UTC DO: 09:00 20-10-2020 UTC ZJAWISKO: .PODSTAWY CHMUR, WIDZIALNOSC. PRZEBIEG: .NA LOTNISKU EPSY I W REJONIE LOTNISKA WYSTAPILY NISKIE CHMURY STRATUS 200-500FT, W ILOSCI BKN/OVC. WIDZXIALNOSC OGRANICZONA PRZEZ SILNE ZAMGLENIE I MGLE 300-1500M. OPRACOWAL: PAWEL KONDRACKI DNIA 20-10-2020 05.50UTC NR OSTRZEZENIA: 264/2020.